createdAt,value
2022-11-15T00:00:15.000Z,71.88
2022-11-15T00:01:14.991Z,72.03
2022-11-15T00:02:15.049Z,71.95
2022-11-15T00:03:14.999Z,71.84
2022-11-15T00:04:14.962Z,71.98
2022-11-15T00:05:14.940Z,72.06
2022-11-15T00:06:14.994Z,72.18
2022-11-15T00:07:33.220Z,72.33
2022-11-15T00:08:15.030Z,71.99
2022-11-15T00:09:14.894Z,71.95
2022-11-15T00:10:14.870Z,71.99
2022-11-15T00:11:14.883Z,72.05
2022-11-15T00:12:14.844Z,72.37
2022-11-15T00:13:14.834Z,72.50
2022-11-15T00:14:14.871Z,72.34
2022-11-15T00:15:14.814Z,72.10
2022-11-15T00:16:14.830Z,72.13
2022-11-15T00:17:14.788Z,72.25
2022-11-15T00:18:14.779Z,72.41
2022-11-15T00:19:14.795Z,72.37
2022-11-15T00:20:14.752Z,72.41
2022-11-15T00:21:14.740Z,72.21
2022-11-15T00:22:14.735Z,72.35
2022-11-15T00:23:14.705Z,72.34
2022-11-15T00:24:14.698Z,72.02
2022-11-15T00:25:14.682Z,71.89
2022-11-15T00:26:14.671Z,72.06
2022-11-15T00:27:14.674Z,71.92
2022-11-15T00:28:14.653Z,71.64
2022-11-15T00:29:14.640Z,71.91
2022-11-15T00:30:14.617Z,71.93
2022-11-15T00:31:14.642Z,71.65
2022-11-15T00:32:14.590Z,71.38
2022-11-15T00:33:14.602Z,71.51
2022-11-15T00:34:14.568Z,71.37
2022-11-15T00:35:14.576Z,71.03
2022-11-15T00:36:14.548Z,71.37
2022-11-15T00:37:14.534Z,71.65
2022-11-15T00:38:14.539Z,71.81
2022-11-15T00:39:14.511Z,71.89
2022-11-15T00:40:14.488Z,71.96
2022-11-15T00:41:14.476Z,71.77
2022-11-15T00:42:14.474Z,71.88
2022-11-15T00:43:14.450Z,72.00
2022-11-15T00:44:14.446Z,72.01
2022-11-15T00:45:14.479Z,72.07
2022-11-15T00:46:14.417Z,72.08
2022-11-15T00:47:14.401Z,72.20
2022-11-15T00:48:14.641Z,72.11
2022-11-15T00:49:14.372Z,71.97
2022-11-15T00:50:15.507Z,71.95
2022-11-15T00:51:14.352Z,71.95
2022-11-15T00:52:14.351Z,71.85
2022-11-15T00:53:14.320Z,71.74
2022-11-15T00:54:14.330Z,71.65
2022-11-15T00:55:14.320Z,71.39
2022-11-15T00:56:14.285Z,71.65
2022-11-15T00:57:14.283Z,71.28
2022-11-15T00:58:14.280Z,71.10
2022-11-15T00:59:14.264Z,71.26
2022-11-15T01:00:14.246Z,71.35
2022-11-15T01:01:14.379Z,71.25
2022-11-15T01:02:14.205Z,71.21
2022-11-15T01:03:14.205Z,70.89
2022-11-15T01:04:14.180Z,70.72
2022-11-15T01:05:14.185Z,70.92
2022-11-15T01:06:14.150Z,70.99
2022-11-15T01:07:14.248Z,71.03
2022-11-15T01:08:14.154Z,70.93
2022-11-15T01:09:14.137Z,70.79
2022-11-15T01:10:14.104Z,70.70
2022-11-15T01:11:14.090Z,70.78
2022-11-15T01:12:14.075Z,70.58
2022-11-15T01:13:14.116Z,70.54
2022-11-15T01:14:14.058Z,70.45
2022-11-15T01:15:14.068Z,70.32
2022-11-15T01:16:14.055Z,70.56
2022-11-15T01:17:14.022Z,70.44
2022-11-15T01:18:14.008Z,70.34
2022-11-15T01:19:13.991Z,70.45
2022-11-15T01:20:14.043Z,70.51
2022-11-15T01:21:13.972Z,70.35
2022-11-15T01:22:13.949Z,70.36
2022-11-15T01:23:13.954Z,70.35
2022-11-15T01:24:13.939Z,70.48
2022-11-15T01:25:13.924Z,70.45
2022-11-15T01:26:13.913Z,70.24
2022-11-15T01:27:13.893Z,70.16
2022-11-15T01:28:13.890Z,70.29
2022-11-15T01:29:13.872Z,70.37
2022-11-15T01:30:13.872Z,70.65
2022-11-15T01:31:13.848Z,70.53
2022-11-15T01:32:13.823Z,70.47
2022-11-15T01:33:13.811Z,70.71
2022-11-15T01:34:13.829Z,70.63
2022-11-15T01:35:13.807Z,70.61
2022-11-15T01:36:13.777Z,70.28
2022-11-15T01:37:13.796Z,70.30
2022-11-15T01:38:13.767Z,70.10
2022-11-15T01:39:13.741Z,70.31
2022-11-15T01:40:13.751Z,70.38
2022-11-15T01:41:13.709Z,70.60
2022-11-15T01:42:13.696Z,70.47
2022-11-15T01:43:13.694Z,70.35
2022-11-15T01:44:13.674Z,70.42
2022-11-15T01:45:13.666Z,70.27
2022-11-15T01:46:13.642Z,70.28
2022-11-15T01:47:13.660Z,70.39
2022-11-15T01:48:13.624Z,70.19
2022-11-15T01:49:13.608Z,70.06
2022-11-15T01:50:13.627Z,70.18
2022-11-15T01:51:13.586Z,70.27
2022-11-15T01:52:13.587Z,70.13
2022-11-15T01:53:13.561Z,70.35
2022-11-15T01:54:13.556Z,70.12
2022-11-15T01:55:13.536Z,70.08
2022-11-15T01:56:13.512Z,70.34
2022-11-15T01:57:13.533Z,70.37
2022-11-15T01:58:13.504Z,70.24
2022-11-15T01:59:13.544Z,70.32
2022-11-15T02:00:13.472Z,70.16
2022-11-15T02:01:13.514Z,70.37
2022-11-15T02:02:13.438Z,70.33
2022-11-15T02:03:13.431Z,70.33
2022-11-15T02:04:13.428Z,70.32
2022-11-15T02:05:13.407Z,70.33
2022-11-15T02:06:13.407Z,70.37
2022-11-15T02:07:13.499Z,70.05
2022-11-15T02:08:13.368Z,70.00
2022-11-15T02:09:13.363Z,70.15
2022-11-15T02:10:13.340Z,70.32
2022-11-15T02:11:13.331Z,70.00
2022-11-15T02:12:13.318Z,70.19
2022-11-15T02:13:13.307Z,70.08
2022-11-15T02:14:13.305Z,70.11
2022-11-15T02:15:13.301Z,70.08
2022-11-15T02:16:13.308Z,70.38
2022-11-15T02:17:13.253Z,70.19
2022-11-15T02:18:13.248Z,69.96
2022-11-15T02:19:13.229Z,69.69
2022-11-15T02:20:13.215Z,69.83
2022-11-15T02:21:13.212Z,70.07
2022-11-15T02:22:13.183Z,70.23
2022-11-15T02:23:13.211Z,69.98
2022-11-15T02:24:13.158Z,69.94
2022-11-15T02:25:13.148Z,70.11
2022-11-15T02:26:13.142Z,70.13
2022-11-15T02:27:13.180Z,69.98
2022-11-15T02:28:13.160Z,69.80
2022-11-15T02:29:13.116Z,70.13
2022-11-15T02:30:13.149Z,70.09
2022-11-15T02:31:13.078Z,70.08
2022-11-15T02:32:13.081Z,70.26
2022-11-15T02:33:13.039Z,70.11
2022-11-15T02:34:13.041Z,70.26
2022-11-15T02:35:13.176Z,70.37
2022-11-15T02:36:13.032Z,70.25
2022-11-15T02:37:12.995Z,70.31
2022-11-15T02:38:13.041Z,70.46
2022-11-15T02:39:13.000Z,70.13
2022-11-15T02:40:12.956Z,70.09
2022-11-15T02:41:12.984Z,70.21
2022-11-15T02:42:12.936Z,70.67
2022-11-15T02:43:12.924Z,70.62
2022-11-15T02:44:12.954Z,70.79
2022-11-15T02:45:12.903Z,70.74
2022-11-15T02:46:12.901Z,70.76
2022-11-15T02:47:12.918Z,70.70
2022-11-15T02:48:12.855Z,70.40
2022-11-15T02:49:12.858Z,70.58
2022-11-15T02:50:12.843Z,70.56
2022-11-15T02:51:12.822Z,70.42
2022-11-15T02:52:12.815Z,70.51
2022-11-15T02:53:12.803Z,70.56
2022-11-15T02:54:12.812Z,70.55
2022-11-15T02:55:12.795Z,70.63
2022-11-15T02:56:12.753Z,70.54
2022-11-15T02:57:12.749Z,70.57
2022-11-15T02:58:12.759Z,70.63
2022-11-15T02:59:12.716Z,70.50
2022-11-15T03:00:12.724Z,70.56
2022-11-15T03:01:12.703Z,70.26
2022-11-15T03:02:12.693Z,70.36
2022-11-15T03:03:12.694Z,70.72
2022-11-15T03:04:12.647Z,70.79
2022-11-15T03:05:12.663Z,70.62
2022-11-15T03:06:12.646Z,70.59
2022-11-15T03:07:12.693Z,70.68
2022-11-15T03:08:12.608Z,70.74
2022-11-15T03:09:12.593Z,70.72
2022-11-15T03:10:12.584Z,70.61
2022-11-15T03:11:12.581Z,70.56
2022-11-15T03:12:12.577Z,70.49
2022-11-15T03:13:12.585Z,70.54
2022-11-15T03:14:12.543Z,70.25
2022-11-15T03:15:12.525Z,70.63
2022-11-15T03:16:12.501Z,70.33
2022-11-15T03:17:12.496Z,70.45
2022-11-15T03:18:12.468Z,70.42
2022-11-15T03:19:12.464Z,70.41
2022-11-15T03:20:12.450Z,70.34
2022-11-15T03:21:12.438Z,70.38
2022-11-15T03:22:12.421Z,70.17
2022-11-15T03:23:12.424Z,70.16
2022-11-15T03:24:12.422Z,70.08
2022-11-15T03:25:12.379Z,69.98
2022-11-15T03:26:12.431Z,70.32
2022-11-15T03:27:12.364Z,70.30
2022-11-15T03:28:12.344Z,70.32
2022-11-15T03:29:12.328Z,69.99
2022-11-15T03:30:12.346Z,70.26
2022-11-15T03:31:12.312Z,70.41
2022-11-15T03:32:12.306Z,70.48
2022-11-15T03:33:12.304Z,70.60
2022-11-15T03:34:12.304Z,70.84
2022-11-15T03:35:12.300Z,70.66
2022-11-15T03:36:12.271Z,70.68
2022-11-15T03:37:12.230Z,70.57
2022-11-15T03:38:12.313Z,70.63
2022-11-15T03:39:16.271Z,70.81
2022-11-15T03:40:12.228Z,70.71
2022-11-15T03:41:12.189Z,70.60
2022-11-15T03:42:12.187Z,70.89
2022-11-15T03:43:12.155Z,71.04
2022-11-15T03:44:12.182Z,70.80
2022-11-15T03:45:12.133Z,70.77
2022-11-15T03:46:12.134Z,70.58
2022-11-15T03:47:12.105Z,70.66
2022-11-15T03:48:12.095Z,70.61
2022-11-15T03:49:12.119Z,70.49
2022-11-15T03:50:12.097Z,70.58
2022-11-15T03:51:12.049Z,70.77
2022-11-15T03:52:12.054Z,70.65
2022-11-15T03:53:12.042Z,70.53
2022-11-15T03:54:12.019Z,70.48
2022-11-15T03:55:12.010Z,70.53
2022-11-15T03:56:11.991Z,70.51
2022-11-15T03:57:11.980Z,70.54
2022-11-15T03:58:11.960Z,70.59
2022-11-15T03:59:11.978Z,70.47
2022-11-15T04:00:12.585Z,70.55
2022-11-15T04:01:18.494Z,70.50
2022-11-15T04:02:11.906Z,70.28
2022-11-15T04:03:12.535Z,70.39
2022-11-15T04:04:11.882Z,70.35
2022-11-15T04:05:11.872Z,70.23
2022-11-15T04:06:11.866Z,70.34
2022-11-15T04:07:11.904Z,70.25
2022-11-15T04:08:11.847Z,70.11
2022-11-15T04:09:11.820Z,70.29
2022-11-15T04:10:11.860Z,70.35
2022-11-15T04:11:11.787Z,70.08
2022-11-15T04:12:11.795Z,70.03
2022-11-15T04:13:11.775Z,70.15
2022-11-15T04:14:11.773Z,70.23
2022-11-15T04:15:11.745Z,70.00
2022-11-15T04:16:11.732Z,69.87
2022-11-15T04:17:11.715Z,70.17
2022-11-15T04:18:11.759Z,70.05
2022-11-15T04:19:11.695Z,69.80
2022-11-15T04:20:11.699Z,70.00
2022-11-15T04:21:11.679Z,69.68
2022-11-15T04:22:11.655Z,70.02
2022-11-15T04:23:11.636Z,69.99
2022-11-15T04:24:11.626Z,69.80
2022-11-15T04:25:11.624Z,70.05
2022-11-15T04:26:11.614Z,70.11
2022-11-15T04:27:11.598Z,70.03
2022-11-15T04:28:11.604Z,70.20
2022-11-15T04:29:11.559Z,70.14
2022-11-15T04:30:11.555Z,70.16
2022-11-15T04:31:11.556Z,70.18
2022-11-15T04:32:11.531Z,70.04
2022-11-15T04:33:11.509Z,69.85
2022-11-15T04:34:11.522Z,70.10
2022-11-15T04:35:11.483Z,70.07
2022-11-15T04:36:11.511Z,69.72
2022-11-15T04:37:11.484Z,69.60
2022-11-15T04:38:11.450Z,69.59
2022-11-15T04:39:11.444Z,69.56
2022-11-15T04:40:11.479Z,69.68
2022-11-15T04:41:11.411Z,69.55
2022-11-15T04:42:11.445Z,69.49
2022-11-15T04:43:11.382Z,69.74
2022-11-15T04:44:11.387Z,69.67
2022-11-15T04:45:11.355Z,69.80
2022-11-15T04:46:11.396Z,70.06
2022-11-15T04:47:11.328Z,70.22
2022-11-15T04:48:11.338Z,70.30
2022-11-15T04:49:11.333Z,70.66
2022-11-15T04:50:11.297Z,70.88
2022-11-15T04:51:11.326Z,70.83
2022-11-15T04:52:11.288Z,70.90
2022-11-15T04:53:11.260Z,70.67
2022-11-15T04:54:11.249Z,70.56
2022-11-15T04:55:11.268Z,70.55
2022-11-15T04:56:11.245Z,70.25
2022-11-15T04:57:11.211Z,70.14
2022-11-15T04:58:11.196Z,70.00
2022-11-15T04:59:11.183Z,69.59
2022-11-15T05:00:11.172Z,69.59
2022-11-15T05:01:11.210Z,69.58
2022-11-15T05:02:11.154Z,69.72
2022-11-15T05:03:11.146Z,69.85
2022-11-15T05:04:11.146Z,70.07
2022-11-15T05:05:11.108Z,70.03
2022-11-15T05:06:11.140Z,70.13
2022-11-15T05:07:11.304Z,70.09
2022-11-15T05:08:11.146Z,70.16
2022-11-15T05:09:11.082Z,70.33
2022-11-15T05:10:11.047Z,70.31
2022-11-15T05:11:11.028Z,70.25
2022-11-15T05:12:11.013Z,70.26
2022-11-15T05:13:10.997Z,70.24
2022-11-15T05:14:11.008Z,70.33
2022-11-15T05:15:10.972Z,70.20
2022-11-15T05:16:11.023Z,70.07
2022-11-15T05:17:10.951Z,70.03
2022-11-15T05:18:10.936Z,70.27
2022-11-15T05:19:10.954Z,70.20
2022-11-15T05:20:10.913Z,70.13
2022-11-15T05:21:10.897Z,70.13
2022-11-15T05:22:10.901Z,70.35
2022-11-15T05:23:10.873Z,70.33
2022-11-15T05:24:10.920Z,70.02
2022-11-15T05:25:10.850Z,70.18
2022-11-15T05:26:10.859Z,70.23
2022-11-15T05:27:10.833Z,70.04
2022-11-15T05:28:10.839Z,70.10
2022-11-15T05:29:10.795Z,69.84
2022-11-15T05:30:10.786Z,70.03
2022-11-15T05:31:10.777Z,69.98
2022-11-15T05:32:10.761Z,70.04
2022-11-15T05:33:10.765Z,70.20
2022-11-15T05:34:10.740Z,70.08
2022-11-15T05:35:10.745Z,69.96
2022-11-15T05:36:10.790Z,69.53
2022-11-15T05:37:10.695Z,69.34
2022-11-15T05:38:10.703Z,69.24
2022-11-15T05:39:10.681Z,69.12
2022-11-15T05:40:10.667Z,69.55
2022-11-15T05:41:10.650Z,68.96
2022-11-15T05:42:10.632Z,68.84
2022-11-15T05:43:10.635Z,68.94
2022-11-15T05:44:10.616Z,69.07
2022-11-15T05:45:10.594Z,69.27
2022-11-15T05:46:10.610Z,69.67
2022-11-15T05:47:10.599Z,69.64
2022-11-15T05:48:10.562Z,69.66
2022-11-15T05:49:10.539Z,69.90
2022-11-15T05:50:10.562Z,70.20
2022-11-15T05:51:10.514Z,70.40
2022-11-15T05:52:10.506Z,70.22
2022-11-15T05:53:10.491Z,70.33
2022-11-15T05:54:10.492Z,70.16
2022-11-15T05:55:10.475Z,70.27
2022-11-15T05:56:10.464Z,70.15
2022-11-15T05:57:10.439Z,69.95
2022-11-15T05:58:10.427Z,69.90
2022-11-15T05:59:10.419Z,69.95
2022-11-15T06:00:10.432Z,69.70
2022-11-15T06:01:10.394Z,69.89
2022-11-15T06:02:10.453Z,69.61
2022-11-15T06:03:10.379Z,69.75
2022-11-15T06:04:10.353Z,69.88
2022-11-15T06:05:10.349Z,69.94
2022-11-15T06:06:16.116Z,69.67
2022-11-15T06:07:10.365Z,69.49
2022-11-15T06:08:10.313Z,69.61
2022-11-15T06:09:10.282Z,69.58
2022-11-15T06:10:10.281Z,69.71
2022-11-15T06:11:10.270Z,69.59
2022-11-15T06:12:10.272Z,69.32
2022-11-15T06:13:10.234Z,69.54
2022-11-15T06:14:10.270Z,69.14
2022-11-15T06:15:10.211Z,69.16
2022-11-15T06:16:10.216Z,69.45
2022-11-15T06:17:11.581Z,69.59
2022-11-15T06:18:10.184Z,69.45
2022-11-15T06:19:10.160Z,69.28
2022-11-15T06:20:10.156Z,69.62
2022-11-15T06:21:10.135Z,69.41
2022-11-15T06:22:10.122Z,69.32
2022-11-15T06:23:10.149Z,69.45
2022-11-15T06:24:10.117Z,69.51
2022-11-15T06:25:10.129Z,69.32
2022-11-15T06:26:10.072Z,69.10
2022-11-15T06:27:10.071Z,69.32
2022-11-15T06:28:10.056Z,69.44
2022-11-15T06:29:10.045Z,69.16
2022-11-15T06:30:10.041Z,68.96
2022-11-15T06:31:10.010Z,68.96
2022-11-15T06:32:09.993Z,69.03
2022-11-15T06:33:10.003Z,69.22
2022-11-15T06:34:09.978Z,69.40
2022-11-15T06:35:09.975Z,69.33
2022-11-15T06:36:13.228Z,69.38
2022-11-15T06:37:09.956Z,69.51
2022-11-15T06:38:09.924Z,69.59
2022-11-15T06:39:09.925Z,69.60
2022-11-15T06:40:09.891Z,69.46
2022-11-15T06:41:09.884Z,69.65
2022-11-15T06:42:09.867Z,70.06
2022-11-15T06:43:09.910Z,70.07
2022-11-15T06:44:09.839Z,70.15
2022-11-15T06:45:09.851Z,70.03
2022-11-15T06:46:09.817Z,70.16
2022-11-15T06:47:09.840Z,70.25
2022-11-15T06:48:09.805Z,70.50
2022-11-15T06:49:10.052Z,70.30
2022-11-15T06:50:09.785Z,70.10
2022-11-15T06:51:09.777Z,70.15
2022-11-15T06:52:09.759Z,70.33
2022-11-15T06:53:09.731Z,70.35
2022-11-15T06:54:09.712Z,70.30
2022-11-15T06:55:09.738Z,70.29
2022-11-15T06:56:09.690Z,70.36
2022-11-15T06:57:09.694Z,70.30
2022-11-15T06:58:09.682Z,70.39
2022-11-15T06:59:09.660Z,70.46
2022-11-15T07:00:09.658Z,70.25
2022-11-15T07:01:09.673Z,70.13
2022-11-15T07:02:09.609Z,70.07
2022-11-15T07:03:09.604Z,70.12
2022-11-15T07:04:09.592Z,70.08
2022-11-15T07:05:09.589Z,70.29
2022-11-15T07:06:09.576Z,70.42
2022-11-15T07:07:09.638Z,69.94
2022-11-15T07:08:09.564Z,69.93
2022-11-15T07:09:09.923Z,70.01
2022-11-15T07:10:09.511Z,69.90
2022-11-15T07:11:09.498Z,69.79
2022-11-15T07:12:09.504Z,69.42
2022-11-15T07:13:09.492Z,69.07
2022-11-15T07:14:09.483Z,69.19
2022-11-15T07:15:09.461Z,69.28
2022-11-15T07:16:09.437Z,69.36
2022-11-15T07:17:10.341Z,69.14
2022-11-15T07:18:09.421Z,69.09
2022-11-15T07:19:09.444Z,69.17
2022-11-15T07:20:09.405Z,69.28
2022-11-15T07:21:09.376Z,69.38
2022-11-15T07:22:09.382Z,69.35
2022-11-15T07:23:09.367Z,69.19
2022-11-15T07:24:09.356Z,69.04
2022-11-15T07:25:09.367Z,69.03
2022-11-15T07:26:09.314Z,69.34
2022-11-15T07:27:09.312Z,69.03
2022-11-15T07:28:09.310Z,68.89
2022-11-15T07:29:09.290Z,69.02
2022-11-15T07:30:09.283Z,69.15
2022-11-15T07:31:09.247Z,69.46
2022-11-15T07:32:09.228Z,69.86
2022-11-15T07:33:09.264Z,70.07
2022-11-15T07:34:09.204Z,70.32
2022-11-15T07:35:09.210Z,70.49
2022-11-15T07:36:09.186Z,70.71
2022-11-15T07:37:09.209Z,70.75
2022-11-15T07:38:09.182Z,70.66
2022-11-15T07:39:09.151Z,70.42
2022-11-15T07:40:09.142Z,70.26
2022-11-15T07:41:09.154Z,70.02
2022-11-15T07:42:09.123Z,69.93
2022-11-15T07:43:09.095Z,69.94
2022-11-15T07:44:09.121Z,70.08
2022-11-15T07:45:09.101Z,69.87
2022-11-15T07:46:09.068Z,69.44
2022-11-15T07:47:09.069Z,69.39
2022-11-15T07:48:09.025Z,69.64
2022-11-15T07:49:09.020Z,69.89
2022-11-15T07:50:09.005Z,69.84
2022-11-15T07:51:13.923Z,69.52
2022-11-15T07:52:08.997Z,69.04
2022-11-15T07:53:08.980Z,68.96
2022-11-15T07:54:08.970Z,69.35
2022-11-15T07:55:09.053Z,69.03
2022-11-15T07:56:08.945Z,69.22
2022-11-15T07:57:08.927Z,69.29
2022-11-15T07:58:08.910Z,69.14
2022-11-15T07:59:08.914Z,68.92
2022-11-15T08:00:08.881Z,69.05
2022-11-15T08:01:09.062Z,68.68
2022-11-15T08:02:08.950Z,68.82
2022-11-15T08:03:08.840Z,68.98
2022-11-15T08:04:08.830Z,69.03
2022-11-15T08:05:08.817Z,69.02
2022-11-15T08:06:08.886Z,68.98
2022-11-15T08:07:08.863Z,68.95
2022-11-15T08:08:08.810Z,68.85
2022-11-15T08:09:08.773Z,68.88
2022-11-15T08:10:08.755Z,69.11
2022-11-15T08:11:08.761Z,69.17
2022-11-15T08:12:08.723Z,68.87
2022-11-15T08:13:08.915Z,68.64
2022-11-15T08:14:08.718Z,68.59
2022-11-15T08:15:08.712Z,68.48
2022-11-15T08:16:08.888Z,68.58
2022-11-15T08:17:08.668Z,68.44
2022-11-15T08:18:08.741Z,68.39
2022-11-15T08:19:08.635Z,68.44
2022-11-15T08:20:08.624Z,68.46
2022-11-15T08:21:08.619Z,68.35
2022-11-15T08:22:08.594Z,68.18
2022-11-15T08:23:08.585Z,68.06
2022-11-15T08:24:08.615Z,68.00
2022-11-15T08:25:08.583Z,67.85
2022-11-15T08:26:08.566Z,67.76
2022-11-15T08:27:08.583Z,67.73
2022-11-15T08:28:08.520Z,67.68
2022-11-15T08:29:08.511Z,67.55
2022-11-15T08:30:08.510Z,67.21
2022-11-15T08:31:08.498Z,67.03
2022-11-15T08:32:08.496Z,67.07
2022-11-15T08:33:08.467Z,66.86
2022-11-15T08:34:08.446Z,66.89
2022-11-15T08:35:08.444Z,66.75
2022-11-15T08:36:08.503Z,66.57
2022-11-15T08:37:08.422Z,66.46
2022-11-15T08:38:08.416Z,66.56
2022-11-15T08:39:08.401Z,66.86
2022-11-15T08:40:08.374Z,66.91
2022-11-15T08:41:08.398Z,66.82
2022-11-15T08:42:08.344Z,66.75
2022-11-15T08:43:08.355Z,66.69
2022-11-15T08:44:08.378Z,66.51
2022-11-15T08:45:08.351Z,66.29
2022-11-15T08:46:08.291Z,66.27
2022-11-15T08:47:08.285Z,66.60
2022-11-15T08:48:08.279Z,66.53
2022-11-15T08:49:08.370Z,66.11
2022-11-15T08:50:08.282Z,66.07
2022-11-15T08:51:08.272Z,65.87
2022-11-15T08:52:08.250Z,66.01
2022-11-15T08:53:08.255Z,65.98
2022-11-15T08:54:08.905Z,66.02
2022-11-15T08:55:08.190Z,65.99
2022-11-15T08:56:08.185Z,65.53
2022-11-15T08:57:08.177Z,65.50
2022-11-15T08:58:08.153Z,65.50
2022-11-15T08:59:08.144Z,65.10
2022-11-15T09:00:08.117Z,65.00
2022-11-15T09:01:08.185Z,65.04
2022-11-15T09:02:08.233Z,64.81
2022-11-15T09:03:08.091Z,64.65
2022-11-15T09:04:08.075Z,64.63
2022-11-15T09:05:08.096Z,64.28
2022-11-15T09:06:08.091Z,64.14
2022-11-15T09:07:08.114Z,64.16
2022-11-15T09:08:25.632Z,63.57
2022-11-15T09:09:08.019Z,63.40
2022-11-15T09:10:08.026Z,63.30
2022-11-15T09:11:07.989Z,63.18
2022-11-15T09:12:07.995Z,62.87
2022-11-15T09:13:08.001Z,62.95
2022-11-15T09:14:07.960Z,62.99
2022-11-15T09:15:07.948Z,63.13
2022-11-15T09:16:07.952Z,63.15
2022-11-15T09:17:07.930Z,62.97
2022-11-15T09:18:07.969Z,62.50
2022-11-15T09:19:11.865Z,62.28
2022-11-15T09:20:07.885Z,62.31
2022-11-15T09:21:07.893Z,62.08
2022-11-15T09:22:07.872Z,62.08
2022-11-15T09:23:07.852Z,61.98
2022-11-15T09:24:07.837Z,61.64
2022-11-15T09:25:11.008Z,61.54
2022-11-15T09:26:07.806Z,61.27
2022-11-15T09:27:07.809Z,61.37
2022-11-15T09:28:07.816Z,61.36
2022-11-15T09:29:07.792Z,61.29
2022-11-15T09:30:07.838Z,60.90
2022-11-15T09:31:07.757Z,60.70
2022-11-15T09:32:07.761Z,60.88
2022-11-15T09:33:07.734Z,60.86
2022-11-15T09:34:07.702Z,60.63
2022-11-15T09:35:07.705Z,60.54
2022-11-15T09:36:07.750Z,60.36
2022-11-15T09:37:07.763Z,60.47
2022-11-15T09:38:07.691Z,60.59
2022-11-15T09:39:07.674Z,60.08
2022-11-15T09:40:07.636Z,60.04
2022-11-15T09:41:07.633Z,60.26
2022-11-15T09:42:07.646Z,59.95
2022-11-15T09:43:07.635Z,59.92
2022-11-15T09:44:07.583Z,59.82
2022-11-15T09:45:07.605Z,59.85
2022-11-15T09:46:07.570Z,59.89
2022-11-15T09:47:07.614Z,60.01
2022-11-15T09:48:07.561Z,60.13
2022-11-15T09:49:07.546Z,60.45
2022-11-15T09:50:07.533Z,60.27
2022-11-15T09:51:07.808Z,60.10
2022-11-15T09:52:07.525Z,59.65
2022-11-15T09:53:07.479Z,59.45
2022-11-15T09:55:07.832Z,59.31
2022-11-15T09:56:07.473Z,59.06
2022-11-15T09:57:10.526Z,59.09
2022-11-15T09:58:07.422Z,58.86
2022-11-15T09:59:07.423Z,58.59
2022-11-15T10:00:38.709Z,58.50
2022-11-15T10:01:07.492Z,58.71
2022-11-15T10:02:13.889Z,58.82
2022-11-15T10:03:07.961Z,58.82
2022-11-15T10:04:10.789Z,58.64
2022-11-15T10:05:07.364Z,58.56
2022-11-15T10:06:07.319Z,58.45
2022-11-15T10:07:07.342Z,58.21
2022-11-15T10:08:07.319Z,58.12
2022-11-15T10:09:07.298Z,57.97
2022-11-15T10:10:07.287Z,57.91
2022-11-15T10:11:36.329Z,57.59
2022-11-15T10:12:07.251Z,57.30
2022-11-15T10:13:07.248Z,57.65
2022-11-15T10:14:07.219Z,57.68
2022-11-15T10:15:07.224Z,58.44
2022-11-15T10:16:07.203Z,58.23
2022-11-15T10:17:07.190Z,58.06
2022-11-15T10:18:07.169Z,57.87
2022-11-15T10:19:07.161Z,58.42
2022-11-15T10:20:07.147Z,57.95
2022-11-15T10:21:07.149Z,58.07
2022-11-15T10:22:07.121Z,59.09
2022-11-15T10:23:07.122Z,59.70
2022-11-15T10:24:07.124Z,58.42
2022-11-15T10:25:07.256Z,58.23
2022-11-15T10:26:07.220Z,58.03
2022-11-15T10:27:07.059Z,57.95
2022-11-15T10:28:07.052Z,57.67
2022-11-15T10:29:07.055Z,57.11
2022-11-15T10:30:07.033Z,56.59
2022-11-15T10:31:07.017Z,56.47
2022-11-15T10:32:06.990Z,56.15
2022-11-15T10:33:06.983Z,56.52
2022-11-15T10:34:06.962Z,56.50
2022-11-15T10:35:06.953Z,56.63
2022-11-15T10:36:06.956Z,56.54
2022-11-15T10:37:06.927Z,56.78
2022-11-15T10:38:06.916Z,57.07
2022-11-15T10:39:06.915Z,57.47
2022-11-15T10:40:06.903Z,56.98
2022-11-15T10:41:06.878Z,56.58
2022-11-15T10:42:11.847Z,56.62
2022-11-15T10:43:06.857Z,56.54
2022-11-15T10:44:06.853Z,56.11
2022-11-15T10:45:06.828Z,55.91
2022-11-15T10:46:31.566Z,56.49
2022-11-15T10:47:06.811Z,57.08
2022-11-15T10:48:06.782Z,58.17
2022-11-15T10:49:06.774Z,58.26
2022-11-15T10:50:06.779Z,58.44
2022-11-15T10:51:06.748Z,57.60
2022-11-15T10:52:06.728Z,58.06
2022-11-15T10:53:06.713Z,57.49
2022-11-15T10:54:11.769Z,57.63
2022-11-15T10:55:06.699Z,57.14
2022-11-15T10:56:06.685Z,56.42
2022-11-15T10:57:06.659Z,55.90
2022-11-15T10:58:06.647Z,55.85
2022-11-15T10:59:06.631Z,55.89
2022-11-15T11:00:06.649Z,56.03
2022-11-15T11:01:06.663Z,56.06
2022-11-15T11:02:06.596Z,56.23
2022-11-15T11:03:06.589Z,56.30
2022-11-15T11:04:06.580Z,56.25
2022-11-15T11:05:06.550Z,56.47
2022-11-15T11:06:06.555Z,56.42
2022-11-15T11:07:06.563Z,56.24
2022-11-15T11:08:06.530Z,56.26
2022-11-15T11:09:06.495Z,56.22
2022-11-15T11:10:22.811Z,56.59
2022-11-15T11:11:06.496Z,55.85
2022-11-15T11:12:06.466Z,55.57
2022-11-15T11:13:06.453Z,55.07
2022-11-15T11:14:06.455Z,54.51
2022-11-15T11:15:06.430Z,54.31
2022-11-15T11:16:06.414Z,54.45
2022-11-15T11:17:06.388Z,54.55
2022-11-15T11:18:06.390Z,54.55
2022-11-15T11:19:06.372Z,53.88
2022-11-15T11:20:06.361Z,53.51
2022-11-15T11:21:06.343Z,53.51
2022-11-15T11:22:06.342Z,53.18
2022-11-15T11:23:06.312Z,52.89
2022-11-15T11:24:06.309Z,53.04
2022-11-15T11:25:06.286Z,52.85
2022-11-15T11:26:06.282Z,52.58
2022-11-15T11:27:06.269Z,53.04
2022-11-15T11:28:06.252Z,52.73
2022-11-15T11:29:06.250Z,52.66
2022-11-15T11:30:06.231Z,53.12
2022-11-15T11:31:06.209Z,53.11
2022-11-15T11:32:06.213Z,52.52
2022-11-15T11:33:06.195Z,52.70
2022-11-15T11:34:06.174Z,52.70
2022-11-15T11:35:06.164Z,52.05
2022-11-15T11:36:06.167Z,51.65
2022-11-15T11:37:06.162Z,51.16
2022-11-15T11:38:06.121Z,51.47
2022-11-15T11:39:06.107Z,51.85
2022-11-15T11:40:10.491Z,51.58
2022-11-15T11:41:06.092Z,51.63
2022-11-15T11:42:06.087Z,50.90
2022-11-15T11:43:06.056Z,50.60
2022-11-15T11:44:06.040Z,50.52
2022-11-15T11:45:06.025Z,50.55
2022-11-15T11:46:06.017Z,51.31
2022-11-15T11:47:06.035Z,51.44
2022-11-15T11:48:05.994Z,50.61
2022-11-15T11:49:05.971Z,51.77
2022-11-15T11:50:05.960Z,51.62
2022-11-15T11:51:05.947Z,51.65
2022-11-15T11:52:05.927Z,50.94
2022-11-15T11:53:05.963Z,50.77
2022-11-15T11:54:05.906Z,50.41
2022-11-15T11:55:05.885Z,50.39
2022-11-15T11:56:05.879Z,50.44
2022-11-15T11:57:05.861Z,50.25
2022-11-15T11:58:05.853Z,49.83
2022-11-15T11:59:05.844Z,49.81
2022-11-15T12:00:05.821Z,49.70
2022-11-15T12:01:11.420Z,49.63
2022-11-15T12:02:05.905Z,49.86
2022-11-15T12:03:05.855Z,49.86
2022-11-15T12:04:05.785Z,49.61
2022-11-15T12:05:05.759Z,49.45
2022-11-15T12:06:05.770Z,49.12
2022-11-15T12:07:05.762Z,49.18
2022-11-15T12:08:05.734Z,49.05
2022-11-15T12:09:05.700Z,49.52
2022-11-15T12:10:05.694Z,49.11
2022-11-15T12:11:05.691Z,48.75
2022-11-15T12:12:05.656Z,48.82
2022-11-15T12:13:05.661Z,48.37
2022-11-15T12:14:05.624Z,48.15
2022-11-15T12:15:05.658Z,48.50
2022-11-15T12:16:09.267Z,48.31
2022-11-15T12:17:05.586Z,48.22
2022-11-15T12:18:05.576Z,48.36
2022-11-15T12:19:05.557Z,49.24
2022-11-15T12:20:05.556Z,49.81
2022-11-15T12:21:05.562Z,49.74
2022-11-15T12:22:05.532Z,50.01
2022-11-15T12:23:05.498Z,50.25
2022-11-15T12:24:05.500Z,50.38
2022-11-15T12:25:05.485Z,50.67
2022-11-15T12:26:05.537Z,49.99
2022-11-15T12:27:05.695Z,49.12
2022-11-15T12:28:05.623Z,48.45
2022-11-15T12:29:07.943Z,48.31
2022-11-15T12:30:05.473Z,47.73
2022-11-15T12:31:05.405Z,47.71
2022-11-15T12:32:05.381Z,47.53
2022-11-15T12:33:05.368Z,47.47
2022-11-15T12:34:07.483Z,47.72
2022-11-15T12:35:05.349Z,47.39
2022-11-15T12:36:05.341Z,47.58
2022-11-15T12:37:05.357Z,47.21
2022-11-15T12:38:05.320Z,46.96
2022-11-15T12:39:05.291Z,47.02
2022-11-15T12:40:05.322Z,47.21
2022-11-15T12:41:05.343Z,46.96
2022-11-15T12:42:05.260Z,46.97
2022-11-15T12:43:05.268Z,47.06
2022-11-15T12:44:05.248Z,47.01
2022-11-15T12:45:05.210Z,46.96
2022-11-15T12:46:05.238Z,46.66
2022-11-15T12:47:05.188Z,46.98
2022-11-15T12:48:05.169Z,46.73
2022-11-15T12:49:05.175Z,46.47
2022-11-15T12:50:05.159Z,46.86
2022-11-15T12:51:05.125Z,46.69
2022-11-15T12:52:05.112Z,46.53
2022-11-15T12:53:05.120Z,46.28